sensor_id;sensor_type;location;lat;lon;timestamp;P1;durP1;ratioP1;P2;durP2;ratioP2
29218;SDS011;16421;50.202;7.852;2023-03-03T00:02:35;5.95;;;3.88;;
29218;SDS011;16421;50.202;7.852;2023-03-03T00:07:38;7.25;;;4.00;;
29218;SDS011;16421;50.202;7.852;2023-03-03T00:12:46;5.57;;;3.58;;
29218;SDS011;16421;50.202;7.852;2023-03-03T00:17:51;8.27;;;4.65;;
29218;SDS011;16421;50.202;7.852;2023-03-03T00:22:55;9.82;;;4.65;;
29218;SDS011;16421;50.202;7.852;2023-03-03T00:28:13;6.43;;;3.97;;
29218;SDS011;16421;50.202;7.852;2023-03-03T00:33:26;5.32;;;3.78;;
29218;SDS011;16421;50.202;7.852;2023-03-03T00:38:33;6.70;;;3.83;;
29218;SDS011;16421;50.202;7.852;2023-03-03T00:43:39;5.77;;;3.27;;
29218;SDS011;16421;50.202;7.852;2023-03-03T00:48:44;7.60;;;3.45;;
29218;SDS011;16421;50.202;7.852;2023-03-03T00:53:49;4.90;;;2.90;;
29218;SDS011;16421;50.202;7.852;2023-03-03T00:58:53;4.43;;;3.00;;
29218;SDS011;16421;50.202;7.852;2023-03-03T01:03:58;4.90;;;3.03;;
29218;SDS011;16421;50.202;7.852;2023-03-03T01:09:01;4.80;;;2.92;;
29218;SDS011;16421;50.202;7.852;2023-03-03T01:14:09;5.80;;;3.33;;
29218;SDS011;16421;50.202;7.852;2023-03-03T01:19:12;5.07;;;3.00;;
29218;SDS011;16421;50.202;7.852;2023-03-03T01:24:15;5.63;;;3.00;;
29218;SDS011;16421;50.202;7.852;2023-03-03T01:29:20;5.13;;;3.00;;
29218;SDS011;16421;50.202;7.852;2023-03-03T01:34:24;7.30;;;3.30;;
29218;SDS011;16421;50.202;7.852;2023-03-03T01:39:27;6.30;;;3.38;;
29218;SDS011;16421;50.202;7.852;2023-03-03T01:44:31;6.10;;;3.22;;
29218;SDS011;16421;50.202;7.852;2023-03-03T01:49:35;5.65;;;3.30;;
29218;SDS011;16421;50.202;7.852;2023-03-03T01:54:42;5.53;;;3.65;;
29218;SDS011;16421;50.202;7.852;2023-03-03T01:59:50;5.20;;;3.47;;
29218;SDS011;16421;50.202;7.852;2023-03-03T02:04:56;5.75;;;3.30;;
29218;SDS011;16421;50.202;7.852;2023-03-03T02:10:03;4.22;;;3.00;;
29218;SDS011;16421;50.202;7.852;2023-03-03T02:15:16;5.03;;;3.00;;
29218;SDS011;16421;50.202;7.852;2023-03-03T02:20:27;5.70;;;3.28;;
29218;SDS011;16421;50.202;7.852;2023-03-03T02:25:47;5.95;;;3.08;;
29218;SDS011;16421;50.202;7.852;2023-03-03T02:31:05;6.35;;;3.67;;
29218;SDS011;16421;50.202;7.852;2023-03-03T02:36:12;5.50;;;3.13;;
29218;SDS011;16421;50.202;7.852;2023-03-03T02:41:20;5.93;;;3.63;;
29218;SDS011;16421;50.202;7.852;2023-03-03T02:51:37;5.35;;;3.08;;
29218;SDS011;16421;50.202;7.852;2023-03-03T02:56:42;7.32;;;3.22;;
29218;SDS011;16421;50.202;7.852;2023-03-03T03:02:07;5.43;;;3.53;;
29218;SDS011;16421;50.202;7.852;2023-03-03T03:07:10;4.38;;;3.30;;
29218;SDS011;16421;50.202;7.852;2023-03-03T03:12:15;4.78;;;2.92;;
29218;SDS011;16421;50.202;7.852;2023-03-03T03:17:21;6.13;;;3.20;;
29218;SDS011;16421;50.202;7.852;2023-03-03T03:22:26;5.88;;;3.38;;
29218;SDS011;16421;50.202;7.852;2023-03-03T03:27:32;6.03;;;3.58;;
29218;SDS011;16421;50.202;7.852;2023-03-03T03:32:35;7.05;;;4.30;;
29218;SDS011;16421;50.202;7.852;2023-03-03T03:37:39;5.93;;;3.55;;
29218;SDS011;16421;50.202;7.852;2023-03-03T03:42:45;7.40;;;4.07;;
29218;SDS011;16421;50.202;7.852;2023-03-03T03:47:49;8.23;;;4.15;;
29218;SDS011;16421;50.202;7.852;2023-03-03T03:52:52;5.60;;;3.53;;
29218;SDS011;16421;50.202;7.852;2023-03-03T03:57:58;5.57;;;3.60;;
29218;SDS011;16421;50.202;7.852;2023-03-03T04:03:01;7.43;;;3.47;;
29218;SDS011;16421;50.202;7.852;2023-03-03T04:08:05;7.63;;;3.80;;
29218;SDS011;16421;50.202;7.852;2023-03-03T04:13:11;5.88;;;3.30;;
29218;SDS011;16421;50.202;7.852;2023-03-03T04:18:15;7.57;;;4.05;;
29218;SDS011;16421;50.202;7.852;2023-03-03T04:23:20;7.53;;;3.40;;
29218;SDS011;16421;50.202;7.852;2023-03-03T04:28:25;11.05;;;4.97;;
29218;SDS011;16421;50.202;7.852;2023-03-03T04:33:29;18.27;;;8.50;;
29218;SDS011;16421;50.202;7.852;2023-03-03T04:38:33;39.63;;;14.98;;
29218;SDS011;16421;50.202;7.852;2023-03-03T04:43:38;38.30;;;14.18;;
29218;SDS011;16421;50.202;7.852;2023-03-03T04:48:42;21.02;;;9.82;;
29218;SDS011;16421;50.202;7.852;2023-03-03T04:53:46;13.57;;;6.20;;
29218;SDS011;16421;50.202;7.852;2023-03-03T04:58:51;12.52;;;5.30;;
29218;SDS011;16421;50.202;7.852;2023-03-03T05:03:55;19.85;;;9.35;;
29218;SDS011;16421;50.202;7.852;2023-03-03T05:08:58;11.80;;;6.28;;
29218;SDS011;16421;50.202;7.852;2023-03-03T05:14:03;9.80;;;5.38;;
29218;SDS011;16421;50.202;7.852;2023-03-03T05:24:12;12.98;;;5.70;;
29218;SDS011;16421;50.202;7.852;2023-03-03T05:29:17;11.27;;;5.75;;
29218;SDS011;16421;50.202;7.852;2023-03-03T05:34:20;10.93;;;5.57;;
29218;SDS011;16421;50.202;7.852;2023-03-03T05:39:24;7.90;;;4.85;;
29218;SDS011;16421;50.202;7.852;2023-03-03T05:44:29;8.50;;;4.68;;
29218;SDS011;16421;50.202;7.852;2023-03-03T05:49:33;8.13;;;5.10;;
29218;SDS011;16421;50.202;7.852;2023-03-03T05:54:36;13.77;;;6.97;;
29218;SDS011;16421;50.202;7.852;2023-03-03T05:59:44;14.70;;;7.07;;
29218;SDS011;16421;50.202;7.852;2023-03-03T06:04:47;17.55;;;7.80;;
29218;SDS011;16421;50.202;7.852;2023-03-03T06:09:51;18.25;;;7.72;;
29218;SDS011;16421;50.202;7.852;2023-03-03T06:14:56;20.63;;;8.85;;
29218;SDS011;16421;50.202;7.852;2023-03-03T06:19:59;20.83;;;7.90;;
29218;SDS011;16421;50.202;7.852;2023-03-03T06:25:03;14.00;;;6.95;;
29218;SDS011;16421;50.202;7.852;2023-03-03T06:30:09;14.85;;;6.63;;
29218;SDS011;16421;50.202;7.852;2023-03-03T06:35:14;19.48;;;8.35;;
29218;SDS011;16421;50.202;7.852;2023-03-03T06:40:18;16.75;;;7.75;;
29218;SDS011;16421;50.202;7.852;2023-03-03T06:45:23;15.85;;;8.07;;
29218;SDS011;16421;50.202;7.852;2023-03-03T06:50:26;14.18;;;6.65;;
29218;SDS011;16421;50.202;7.852;2023-03-03T06:55:30;14.63;;;7.18;;
29218;SDS011;16421;50.202;7.852;2023-03-03T07:00:34;18.60;;;8.40;;
29218;SDS011;16421;50.202;7.852;2023-03-03T07:05:38;18.05;;;8.18;;
29218;SDS011;16421;50.202;7.852;2023-03-03T07:10:41;11.57;;;6.40;;
29218;SDS011;16421;50.202;7.852;2023-03-03T07:15:47;10.65;;;5.55;;
29218;SDS011;16421;50.202;7.852;2023-03-03T07:20:51;9.02;;;5.15;;
29218;SDS011;16421;50.202;7.852;2023-03-03T07:25:54;10.60;;;5.57;;
29218;SDS011;16421;50.202;7.852;2023-03-03T07:30:59;13.95;;;6.00;;
29218;SDS011;16421;50.202;7.852;2023-03-03T07:36:04;10.23;;;5.10;;
29218;SDS011;16421;50.202;7.852;2023-03-03T07:41:21;10.35;;;5.32;;
29218;SDS011;16421;50.202;7.852;2023-03-03T07:46:27;10.15;;;5.20;;
29218;SDS011;16421;50.202;7.852;2023-03-03T07:51:37;12.30;;;6.13;;
29218;SDS011;16421;50.202;7.852;2023-03-03T07:56:42;10.35;;;5.57;;
29218;SDS011;16421;50.202;7.852;2023-03-03T08:01:47;9.40;;;5.63;;
29218;SDS011;16421;50.202;7.852;2023-03-03T08:06:55;15.75;;;7.63;;
29218;SDS011;16421;50.202;7.852;2023-03-03T08:12:01;17.73;;;9.15;;
29218;SDS011;16421;50.202;7.852;2023-03-03T08:17:25;18.33;;;8.75;;
29218;SDS011;16421;50.202;7.852;2023-03-03T08:22:36;15.02;;;7.78;;
29218;SDS011;16421;50.202;7.852;2023-03-03T08:27:39;14.32;;;7.57;;
29218;SDS011;16421;50.202;7.852;2023-03-03T08:32:44;15.20;;;8.23;;
29218;SDS011;16421;50.202;7.852;2023-03-03T08:37:48;14.75;;;8.15;;
29218;SDS011;16421;50.202;7.852;2023-03-03T08:42:52;14.45;;;7.13;;
29218;SDS011;16421;50.202;7.852;2023-03-03T08:47:58;13.38;;;7.53;;
29218;SDS011;16421;50.202;7.852;2023-03-03T08:53:06;13.30;;;6.75;;
29218;SDS011;16421;50.202;7.852;2023-03-03T08:58:11;18.60;;;9.63;;
29218;SDS011;16421;50.202;7.852;2023-03-03T09:03:16;16.02;;;9.07;;
29218;SDS011;16421;50.202;7.852;2023-03-03T09:08:20;17.13;;;9.35;;
29218;SDS011;16421;50.202;7.852;2023-03-03T09:13:24;14.13;;;8.52;;
29218;SDS011;16421;50.202;7.852;2023-03-03T09:18:34;22.40;;;11.60;;
29218;SDS011;16421;50.202;7.852;2023-03-03T09:23:40;15.07;;;8.57;;
29218;SDS011;16421;50.202;7.852;2023-03-03T09:28:44;28.33;;;16.33;;
29218;SDS011;16421;50.202;7.852;2023-03-03T09:33:49;18.52;;;11.07;;
29218;SDS011;16421;50.202;7.852;2023-03-03T09:38:58;14.90;;;8.07;;
29218;SDS011;16421;50.202;7.852;2023-03-03T09:44:06;15.77;;;8.43;;
29218;SDS011;16421;50.202;7.852;2023-03-03T09:49:26;10.93;;;6.80;;
29218;SDS011;16421;50.202;7.852;2023-03-03T10:05:35;13.80;;;7.97;;
29218;SDS011;16421;50.202;7.852;2023-03-03T10:10:50;15.13;;;8.48;;
29218;SDS011;16421;50.202;7.852;2023-03-03T10:16:09;10.88;;;6.38;;
29218;SDS011;16421;50.202;7.852;2023-03-03T10:21:26;20.15;;;12.68;;
29218;SDS011;16421;50.202;7.852;2023-03-03T10:26:43;13.63;;;8.73;;
29218;SDS011;16421;50.202;7.852;2023-03-03T10:32:31;19.48;;;10.50;;
29218;SDS011;16421;50.202;7.852;2023-03-03T10:37:47;17.70;;;9.52;;
29218;SDS011;16421;50.202;7.852;2023-03-03T10:43:04;15.40;;;9.02;;
29218;SDS011;16421;50.202;7.852;2023-03-03T10:48:39;11.88;;;7.22;;
29218;SDS011;16421;50.202;7.852;2023-03-03T10:53:56;13.20;;;8.05;;
29218;SDS011;16421;50.202;7.852;2023-03-03T10:59:13;11.93;;;6.80;;
29218;SDS011;16421;50.202;7.852;2023-03-03T11:04:36;10.27;;;6.32;;
29218;SDS011;16421;50.202;7.852;2023-03-03T11:10:02;11.88;;;7.15;;
29218;SDS011;16421;50.202;7.852;2023-03-03T11:15:23;14.38;;;8.75;;
29218;SDS011;16421;50.202;7.852;2023-03-03T11:20:35;12.32;;;7.60;;
29218;SDS011;16421;50.202;7.852;2023-03-03T11:25:47;14.63;;;8.25;;
29218;SDS011;16421;50.202;7.852;2023-03-03T11:31:08;15.23;;;9.23;;
29218;SDS011;16421;50.202;7.852;2023-03-03T11:36:22;13.60;;;8.13;;
29218;SDS011;16421;50.202;7.852;2023-03-03T11:41:32;11.88;;;7.00;;
29218;SDS011;16421;50.202;7.852;2023-03-03T11:46:39;13.63;;;8.45;;
29218;SDS011;16421;50.202;7.852;2023-03-03T11:51:54;12.10;;;7.55;;
29218;SDS011;16421;50.202;7.852;2023-03-03T11:57:12;11.63;;;7.23;;
29218;SDS011;16421;50.202;7.852;2023-03-03T12:02:34;10.63;;;6.40;;
29218;SDS011;16421;50.202;7.852;2023-03-03T12:07:52;13.45;;;7.70;;
29218;SDS011;16421;50.202;7.852;2023-03-03T12:13:05;12.40;;;7.85;;
29218;SDS011;16421;50.202;7.852;2023-03-03T12:18:20;13.13;;;7.82;;
29218;SDS011;16421;50.202;7.852;2023-03-03T12:29:10;9.27;;;5.78;;
29218;SDS011;16421;50.202;7.852;2023-03-03T12:34:23;9.75;;;6.63;;
29218;SDS011;16421;50.202;7.852;2023-03-03T12:39:42;14.48;;;9.05;;
29218;SDS011;16421;50.202;7.852;2023-03-03T12:44:58;14.50;;;8.50;;
29218;SDS011;16421;50.202;7.852;2023-03-03T12:50:19;15.23;;;8.60;;
29218;SDS011;16421;50.202;7.852;2023-03-03T12:55:31;14.33;;;8.60;;
29218;SDS011;16421;50.202;7.852;2023-03-03T13:00:46;14.70;;;8.88;;
29218;SDS011;16421;50.202;7.852;2023-03-03T13:05:59;13.35;;;7.75;;
29218;SDS011;16421;50.202;7.852;2023-03-03T13:11:21;19.45;;;10.57;;
29218;SDS011;16421;50.202;7.852;2023-03-03T13:16:38;18.60;;;11.35;;
29218;SDS011;16421;50.202;7.852;2023-03-03T13:21:49;13.00;;;8.18;;
29218;SDS011;16421;50.202;7.852;2023-03-03T13:26:57;13.48;;;8.02;;
29218;SDS011;16421;50.202;7.852;2023-03-03T13:32:10;11.73;;;7.32;;
29218;SDS011;16421;50.202;7.852;2023-03-03T13:37:18;18.17;;;10.77;;
29218;SDS011;16421;50.202;7.852;2023-03-03T13:42:27;17.55;;;10.90;;
29218;SDS011;16421;50.202;7.852;2023-03-03T13:47:37;16.00;;;9.60;;
29218;SDS011;16421;50.202;7.852;2023-03-03T13:52:51;20.92;;;12.70;;
29218;SDS011;16421;50.202;7.852;2023-03-03T13:58:05;17.67;;;11.63;;
29218;SDS011;16421;50.202;7.852;2023-03-03T14:03:33;17.38;;;10.73;;
29218;SDS011;16421;50.202;7.852;2023-03-03T14:08:59;17.80;;;11.85;;
29218;SDS011;16421;50.202;7.852;2023-03-03T14:14:37;20.40;;;12.65;;
29218;SDS011;16421;50.202;7.852;2023-03-03T14:19:51;31.55;;;19.45;;
29218;SDS011;16421;50.202;7.852;2023-03-03T14:25:04;23.27;;;14.90;;
29218;SDS011;16421;50.202;7.852;2023-03-03T14:30:28;24.55;;;15.70;;
29218;SDS011;16421;50.202;7.852;2023-03-03T14:35:42;30.40;;;19.15;;
29218;SDS011;16421;50.202;7.852;2023-03-03T14:41:03;24.90;;;15.32;;
29218;SDS011;16421;50.202;7.852;2023-03-03T14:46:29;24.33;;;15.43;;
29218;SDS011;16421;50.202;7.852;2023-03-03T14:51:45;26.48;;;16.33;;
29218;SDS011;16421;50.202;7.852;2023-03-03T14:56:57;19.38;;;11.73;;
29218;SDS011;16421;50.202;7.852;2023-03-03T15:07:32;22.40;;;14.50;;
29218;SDS011;16421;50.202;7.852;2023-03-03T15:12:39;20.00;;;12.18;;
29218;SDS011;16421;50.202;7.852;2023-03-03T15:17:54;16.55;;;10.30;;
29218;SDS011;16421;50.202;7.852;2023-03-03T15:23:09;20.75;;;12.68;;
29218;SDS011;16421;50.202;7.852;2023-03-03T15:28:45;15.05;;;9.95;;
29218;SDS011;16421;50.202;7.852;2023-03-03T15:34:03;24.20;;;15.02;;
29218;SDS011;16421;50.202;7.852;2023-03-03T15:39:21;29.33;;;17.00;;
29218;SDS011;16421;50.202;7.852;2023-03-03T15:44:37;27.17;;;17.63;;
29218;SDS011;16421;50.202;7.852;2023-03-03T15:55:34;24.40;;;15.43;;
29218;SDS011;16421;50.202;7.852;2023-03-03T16:00:51;20.40;;;13.55;;
29218;SDS011;16421;50.202;7.852;2023-03-03T16:06:02;17.25;;;11.52;;
29218;SDS011;16421;50.202;7.852;2023-03-03T16:11:17;16.75;;;10.90;;
29218;SDS011;16421;50.202;7.852;2023-03-03T16:16:34;20.88;;;11.23;;
29218;SDS011;16421;50.202;7.852;2023-03-03T16:21:50;20.50;;;13.70;;
29218;SDS011;16421;50.202;7.852;2023-03-03T16:27:03;16.48;;;9.20;;
29218;SDS011;16421;50.202;7.852;2023-03-03T16:32:12;13.68;;;8.82;;
29218;SDS011;16421;50.202;7.852;2023-03-03T16:37:20;17.25;;;10.52;;
29218;SDS011;16421;50.202;7.852;2023-03-03T16:42:31;17.40;;;10.25;;
29218;SDS011;16421;50.202;7.852;2023-03-03T16:52:54;17.80;;;8.75;;
29218;SDS011;16421;50.202;7.852;2023-03-03T16:58:11;16.98;;;10.73;;
29218;SDS011;16421;50.202;7.852;2023-03-03T17:03:35;23.60;;;14.90;;
29218;SDS011;16421;50.202;7.852;2023-03-03T17:08:50;20.83;;;13.02;;
29218;SDS011;16421;50.202;7.852;2023-03-03T17:14:39;21.35;;;13.38;;
29218;SDS011;16421;50.202;7.852;2023-03-03T17:19:54;19.38;;;11.68;;
29218;SDS011;16421;50.202;7.852;2023-03-03T17:25:11;17.55;;;10.63;;
29218;SDS011;16421;50.202;7.852;2023-03-03T17:30:21;27.63;;;15.10;;
29218;SDS011;16421;50.202;7.852;2023-03-03T17:35:37;18.35;;;11.23;;
29218;SDS011;16421;50.202;7.852;2023-03-03T17:40:54;15.85;;;9.88;;
29218;SDS011;16421;50.202;7.852;2023-03-03T17:46:08;16.05;;;10.27;;
29218;SDS011;16421;50.202;7.852;2023-03-03T17:51:23;16.73;;;10.63;;
29218;SDS011;16421;50.202;7.852;2023-03-03T17:56:44;18.85;;;10.80;;
29218;SDS011;16421;50.202;7.852;2023-03-03T18:02:02;18.92;;;11.18;;
29218;SDS011;16421;50.202;7.852;2023-03-03T18:12:41;15.10;;;9.07;;
29218;SDS011;16421;50.202;7.852;2023-03-03T18:18:04;15.73;;;9.90;;
29218;SDS011;16421;50.202;7.852;2023-03-03T18:28:47;20.10;;;12.37;;
29218;SDS011;16421;50.202;7.852;2023-03-03T18:33:59;23.97;;;12.47;;
29218;SDS011;16421;50.202;7.852;2023-03-03T18:39:12;24.70;;;12.95;;
29218;SDS011;16421;50.202;7.852;2023-03-03T18:44:22;20.40;;;11.77;;
29218;SDS011;16421;50.202;7.852;2023-03-03T18:55:39;23.83;;;12.13;;
29218;SDS011;16421;50.202;7.852;2023-03-03T19:00:46;26.77;;;13.82;;
29218;SDS011;16421;50.202;7.852;2023-03-03T19:05:56;25.60;;;12.27;;
29218;SDS011;16421;50.202;7.852;2023-03-03T19:11:02;21.17;;;12.07;;
29218;SDS011;16421;50.202;7.852;2023-03-03T19:16:08;22.55;;;11.82;;
29218;SDS011;16421;50.202;7.852;2023-03-03T19:21:24;23.48;;;11.88;;
29218;SDS011;16421;50.202;7.852;2023-03-03T19:32:07;25.50;;;12.27;;
29218;SDS011;16421;50.202;7.852;2023-03-03T19:37:35;30.48;;;14.73;;
29218;SDS011;16421;50.202;7.852;2023-03-03T19:42:48;31.40;;;15.32;;
29218;SDS011;16421;50.202;7.852;2023-03-03T19:48:03;25.92;;;14.40;;
29218;SDS011;16421;50.202;7.852;2023-03-03T19:53:18;25.38;;;12.95;;
29218;SDS011;16421;50.202;7.852;2023-03-03T19:58:29;26.85;;;13.32;;
29218;SDS011;16421;50.202;7.852;2023-03-03T20:04:01;26.08;;;13.45;;
29218;SDS011;16421;50.202;7.852;2023-03-03T20:09:18;23.52;;;12.55;;
29218;SDS011;16421;50.202;7.852;2023-03-03T20:14:32;24.08;;;11.95;;
29218;SDS011;16421;50.202;7.852;2023-03-03T20:19:48;31.80;;;14.65;;
29218;SDS011;16421;50.202;7.852;2023-03-03T20:25:07;31.05;;;14.82;;
29218;SDS011;16421;50.202;7.852;2023-03-03T20:30:25;31.73;;;15.07;;
29218;SDS011;16421;50.202;7.852;2023-03-03T20:35:41;29.15;;;14.18;;
29218;SDS011;16421;50.202;7.852;2023-03-03T20:40:59;27.25;;;13.52;;
29218;SDS011;16421;50.202;7.852;2023-03-03T20:46:13;33.25;;;16.25;;
29218;SDS011;16421;50.202;7.852;2023-03-03T20:51:24;34.60;;;17.48;;
29218;SDS011;16421;50.202;7.852;2023-03-03T20:56:35;39.25;;;18.25;;
29218;SDS011;16421;50.202;7.852;2023-03-03T21:01:46;41.45;;;19.08;;
29218;SDS011;16421;50.202;7.852;2023-03-03T21:06:54;34.25;;;16.45;;
29218;SDS011;16421;50.202;7.852;2023-03-03T21:12:00;35.67;;;17.40;;
29218;SDS011;16421;50.202;7.852;2023-03-03T21:17:22;35.90;;;18.27;;
29218;SDS011;16421;50.202;7.852;2023-03-03T21:27:33;27.42;;;13.00;;
29218;SDS011;16421;50.202;7.852;2023-03-03T21:32:39;28.92;;;14.73;;
29218;SDS011;16421;50.202;7.852;2023-03-03T21:37:45;28.53;;;14.73;;
29218;SDS011;16421;50.202;7.852;2023-03-03T21:42:54;33.88;;;16.83;;
29218;SDS011;16421;50.202;7.852;2023-03-03T21:48:02;34.60;;;17.20;;
29218;SDS011;16421;50.202;7.852;2023-03-03T21:53:06;39.53;;;18.98;;
29218;SDS011;16421;50.202;7.852;2023-03-03T21:58:15;39.92;;;18.52;;
29218;SDS011;16421;50.202;7.852;2023-03-03T22:03:20;35.45;;;15.60;;
29218;SDS011;16421;50.202;7.852;2023-03-03T22:08:24;33.80;;;15.60;;
29218;SDS011;16421;50.202;7.852;2023-03-03T22:13:30;33.75;;;16.20;;
29218;SDS011;16421;50.202;7.852;2023-03-03T22:18:33;36.28;;;15.80;;
29218;SDS011;16421;50.202;7.852;2023-03-03T22:23:42;34.72;;;15.13;;
29218;SDS011;16421;50.202;7.852;2023-03-03T22:28:47;28.98;;;13.43;;
29218;SDS011;16421;50.202;7.852;2023-03-03T22:33:51;27.73;;;14.33;;
29218;SDS011;16421;50.202;7.852;2023-03-03T22:38:55;36.40;;;17.33;;
29218;SDS011;16421;50.202;7.852;2023-03-03T22:44:01;38.78;;;16.50;;
29218;SDS011;16421;50.202;7.852;2023-03-03T22:49:05;36.08;;;16.05;;
29218;SDS011;16421;50.202;7.852;2023-03-03T22:54:08;38.13;;;16.42;;
29218;SDS011;16421;50.202;7.852;2023-03-03T22:59:13;36.42;;;16.58;;
29218;SDS011;16421;50.202;7.852;2023-03-03T23:04:17;37.47;;;17.25;;
29218;SDS011;16421;50.202;7.852;2023-03-03T23:09:21;34.47;;;16.05;;
29218;SDS011;16421;50.202;7.852;2023-03-03T23:14:26;36.25;;;17.60;;
29218;SDS011;16421;50.202;7.852;2023-03-03T23:19:30;39.28;;;18.98;;
29218;SDS011;16421;50.202;7.852;2023-03-03T23:24:34;42.47;;;17.63;;
29218;SDS011;16421;50.202;7.852;2023-03-03T23:29:39;36.22;;;16.10;;
29218;SDS011;16421;50.202;7.852;2023-03-03T23:34:42;41.08;;;17.20;;
29218;SDS011;16421;50.202;7.852;2023-03-03T23:39:46;35.75;;;14.95;;
29218;SDS011;16421;50.202;7.852;2023-03-03T23:44:50;34.95;;;14.48;;
29218;SDS011;16421;50.202;7.852;2023-03-03T23:49:54;34.60;;;15.50;;
29218;SDS011;16421;50.202;7.852;2023-03-03T23:54:57;40.67;;;17.70;;
